createdAt,value
2017-05-24T00:00:02.929Z,0
2017-05-24T00:05:02.592Z,0
2017-05-24T00:10:03.311Z,0
2017-05-24T00:15:02.959Z,0
2017-05-24T00:20:02.680Z,0
2017-05-24T00:25:03.466Z,0
2017-05-24T00:30:03.235Z,0
2017-05-24T00:35:02.990Z,0
2017-05-24T00:40:02.751Z,0
2017-05-24T00:45:03.341Z,0
2017-05-24T00:50:03.076Z,0
2017-05-24T00:55:02.720Z,0
2017-05-24T01:00:03.438Z,0
2017-05-24T01:05:03.094Z,0
2017-05-24T01:10:02.881Z,0
2017-05-24T01:15:02.701Z,0
2017-05-24T01:20:02.540Z,0
2017-05-24T01:25:03.130Z,0
2017-05-24T01:30:02.953Z,0
2017-05-24T01:35:02.552Z,0
2017-05-24T01:40:03.333Z,0
2017-05-24T01:45:02.898Z,0
2017-05-24T01:50:02.517Z,0
2017-05-24T01:55:03.133Z,0
2017-05-24T02:00:02.888Z,0
2017-05-24T02:05:02.557Z,0
2017-05-24T02:10:03.331Z,0
2017-05-24T02:15:02.937Z,0
2017-05-24T02:20:02.689Z,0
2017-05-24T02:25:03.363Z,0
2017-05-24T02:30:02.947Z,0
2017-05-24T02:35:02.709Z,0
2017-05-24T02:40:03.334Z,0
2017-05-24T02:45:03.072Z,0
2017-05-24T02:50:02.953Z,0
2017-05-24T02:55:02.733Z,1
2017-05-24T03:00:03.354Z,3
2017-05-24T03:05:03.130Z,8
2017-05-24T03:10:02.957Z,28
2017-05-24T03:15:02.782Z,37
2017-05-24T03:20:02.583Z,51
2017-05-24T03:25:03.290Z,58
2017-05-24T03:30:02.857Z,59
2017-05-24T03:35:02.480Z,70
2017-05-24T03:40:03.164Z,88
2017-05-24T03:45:02.883Z,134
2017-05-24T03:50:02.666Z,360
2017-05-24T03:55:03.367Z,490
2017-05-24T04:00:10.307Z,621
2017-05-24T04:05:02.963Z,756
2017-05-24T04:10:02.602Z,859
2017-05-24T04:15:03.410Z,983
2017-05-24T04:20:03.192Z,907
2017-05-24T04:25:02.930Z,932
2017-05-24T04:30:03.080Z,981
2017-05-24T04:35:02.687Z,1000
2017-05-24T04:40:03.392Z,1000
2017-05-24T04:45:03.122Z,1000
2017-05-24T04:50:02.808Z,1000
2017-05-24T04:55:02.538Z,2000
2017-05-24T05:00:03.283Z,3000
2017-05-24T05:05:03.109Z,3000
2017-05-24T05:10:02.708Z,3000
2017-05-24T05:15:03.388Z,3000
2017-05-24T05:20:03.150Z,3000
2017-05-24T05:25:02.841Z,2000
2017-05-24T05:30:02.646Z,3000
2017-05-24T05:35:03.420Z,4000
2017-05-24T05:40:03.156Z,4000
2017-05-24T05:45:02.738Z,4000
2017-05-24T05:50:02.500Z,3000
2017-05-24T05:55:03.201Z,3000
2017-05-24T06:00:02.767Z,2000
2017-05-24T06:05:02.500Z,3000
2017-05-24T06:10:03.204Z,9000
2017-05-24T06:15:02.926Z,8000
2017-05-24T06:20:02.519Z,9000
2017-05-24T06:25:03.156Z,7000
2017-05-24T06:30:02.837Z,5000
2017-05-24T06:35:02.596Z,4000
2017-05-24T06:40:03.333Z,6000
2017-05-24T06:45:02.883Z,6000
2017-05-24T06:50:02.523Z,8000
2017-05-24T06:55:03.273Z,8000
2017-05-24T07:00:02.977Z,8000
2017-05-24T07:05:02.574Z,12000
2017-05-24T07:10:03.427Z,11000
2017-05-24T07:15:03.011Z,9000
2017-05-24T07:20:02.802Z,10000
2017-05-24T07:25:03.427Z,8000
2017-05-24T07:30:03.062Z,8000
2017-05-24T07:35:02.826Z,15000
2017-05-24T07:40:02.533Z,14000
2017-05-24T07:45:03.108Z,11000
2017-05-24T07:50:02.726Z,11000
2017-05-24T07:55:02.504Z,14000
2017-05-24T08:00:03.349Z,38000
2017-05-24T08:05:03.165Z,15000
2017-05-24T08:10:02.825Z,51000
2017-05-24T08:15:02.443Z,32000
2017-05-24T08:20:03.057Z,29000
2017-05-24T08:25:02.940Z,30000
2017-05-24T08:30:02.895Z,27000
2017-05-24T08:35:02.840Z,33000
2017-05-24T08:40:02.852Z,30000
2017-05-24T08:45:02.713Z,28000
2017-05-24T08:50:02.723Z,51000
2017-05-24T08:55:03.075Z,57000
2017-05-24T09:00:02.618Z,45000
2017-05-24T09:05:02.766Z,54000
2017-05-24T09:10:02.754Z,22000
2017-05-24T09:15:03.219Z,57000
2017-05-24T09:20:02.884Z,16000
2017-05-24T09:25:03.409Z,17000
2017-05-24T09:30:02.934Z,13000
2017-05-24T09:35:02.981Z,14000
2017-05-24T09:40:03.035Z,16000
2017-05-24T09:45:02.458Z,14000
2017-05-24T09:50:03.343Z,15000
2017-05-24T09:55:03.081Z,9000
2017-05-24T10:00:02.949Z,10000
2017-05-24T10:05:02.664Z,9000
2017-05-24T10:10:02.802Z,12000
2017-05-24T10:15:02.640Z,11000
2017-05-24T10:20:02.895Z,12000
2017-05-24T10:25:03.103Z,12000
2017-05-24T10:30:03.313Z,10000
2017-05-24T10:35:02.798Z,10000
2017-05-24T10:40:03.256Z,7000
2017-05-24T10:45:02.803Z,11000
2017-05-24T10:50:03.246Z,10000
2017-05-24T10:55:02.477Z,11000
2017-05-24T11:00:02.526Z,10000
2017-05-24T11:05:02.795Z,11000
2017-05-24T11:10:03.443Z,9000
2017-05-24T11:15:03.161Z,9000
2017-05-24T11:20:02.915Z,10000
2017-05-24T11:25:02.770Z,11000
2017-05-24T11:30:02.641Z,12000
2017-05-24T11:35:03.294Z,12000
2017-05-24T11:40:02.925Z,13000
2017-05-24T11:45:02.502Z,12000
2017-05-24T11:50:03.042Z,16000
2017-05-24T11:55:17.908Z,20000
2017-05-24T12:00:03.289Z,16000
2017-05-24T12:05:02.688Z,11000
2017-05-24T12:10:03.268Z,10000
2017-05-24T12:15:03.181Z,57000
2017-05-24T12:20:02.814Z,50000
2017-05-24T12:25:02.905Z,35000
2017-05-24T12:30:02.489Z,37000
2017-05-24T12:35:03.378Z,26000
2017-05-24T12:40:02.854Z,52000
2017-05-24T12:45:03.097Z,44000
2017-05-24T12:50:02.666Z,24000
2017-05-24T12:55:03.244Z,17000
2017-05-24T13:00:03.192Z,46000
2017-05-24T13:05:03.240Z,34000
2017-05-24T13:10:02.722Z,20000
2017-05-24T13:15:03.091Z,21000
2017-05-24T13:20:02.901Z,12000
2017-05-24T13:25:02.479Z,19000
2017-05-24T13:30:02.883Z,22000
2017-05-24T13:35:03.251Z,40000
2017-05-24T13:40:02.846Z,21000
2017-05-24T13:45:03.333Z,21000
2017-05-24T13:50:02.844Z,33000
2017-05-24T13:55:03.430Z,15000
2017-05-24T14:00:03.015Z,12000
2017-05-24T14:05:03.025Z,7000
2017-05-24T14:10:02.745Z,8000
2017-05-24T14:15:02.525Z,7000
2017-05-24T14:20:02.979Z,6000
2017-05-24T14:25:03.401Z,12000
2017-05-24T14:30:02.911Z,7000
2017-05-24T14:35:02.577Z,8000
2017-05-24T14:40:03.191Z,19000
2017-05-24T14:45:03.028Z,7000
2017-05-24T14:50:02.653Z,31000
2017-05-24T14:55:03.179Z,7000
2017-05-24T15:00:02.836Z,6000
2017-05-24T15:05:02.499Z,8000
2017-05-24T15:10:03.093Z,8000
2017-05-24T15:15:02.732Z,9000
2017-05-24T15:20:03.387Z,7000
2017-05-24T15:25:02.938Z,8000
2017-05-24T15:30:02.541Z,7000
2017-05-24T15:35:03.132Z,8000
2017-05-24T15:40:02.687Z,7000
2017-05-24T15:45:03.321Z,6000
2017-05-24T15:50:02.931Z,6000
2017-05-24T15:55:02.498Z,7000
2017-05-24T16:00:03.268Z,6000
2017-05-24T16:05:02.509Z,6000
2017-05-24T16:10:03.103Z,6000
2017-05-24T16:15:02.531Z,6000
2017-05-24T16:20:02.907Z,8000
2017-05-24T16:25:03.282Z,6000
2017-05-24T16:30:02.875Z,14000
2017-05-24T16:35:03.370Z,6000
2017-05-24T16:40:03.223Z,6000
2017-05-24T16:45:02.943Z,5000
2017-05-24T16:50:02.736Z,4000
2017-05-24T16:55:03.060Z,4000
2017-05-24T17:00:02.590Z,4000
2017-05-24T17:05:02.921Z,4000
2017-05-24T17:10:03.433Z,5000
2017-05-24T17:15:03.109Z,5000
2017-05-24T17:20:02.837Z,4000
2017-05-24T17:25:03.426Z,3000
2017-05-24T17:30:03.087Z,3000
2017-05-24T17:35:02.515Z,8000
2017-05-24T17:40:03.334Z,7000
2017-05-24T17:45:02.885Z,5000
2017-05-24T17:50:03.393Z,7000
2017-05-24T17:55:02.892Z,5000
2017-05-24T18:00:02.549Z,4000
2017-05-24T18:05:02.760Z,4000
2017-05-24T18:10:03.370Z,4000
2017-05-24T18:15:02.993Z,4000
2017-05-24T18:20:03.001Z,3000
2017-05-24T18:25:03.408Z,5000
2017-05-24T18:30:02.841Z,4000
2017-05-24T18:35:02.811Z,3000
2017-05-24T18:40:02.537Z,3000
2017-05-24T18:45:03.424Z,2000
2017-05-24T18:50:03.000Z,1000
2017-05-24T18:55:02.612Z,1000
2017-05-24T19:00:03.138Z,1000
2017-05-24T19:05:02.862Z,975
2017-05-24T19:10:03.411Z,696
2017-05-24T19:15:03.224Z,586
2017-05-24T19:20:02.694Z,455
2017-05-24T19:25:03.136Z,324
2017-05-24T19:30:02.563Z,213
2017-05-24T19:35:02.751Z,81
2017-05-24T19:40:03.411Z,70
2017-05-24T19:45:03.115Z,65
2017-05-24T19:50:03.291Z,66
2017-05-24T19:55:02.794Z,52
2017-05-24T20:00:03.336Z,38
2017-05-24T20:05:03.150Z,18
2017-05-24T20:10:02.837Z,8
2017-05-24T20:15:02.529Z,4
2017-05-24T20:20:03.115Z,2
2017-05-24T20:25:02.917Z,0
2017-05-24T20:30:02.622Z,0
2017-05-24T20:35:02.595Z,0
2017-05-24T20:40:02.885Z,0
2017-05-24T20:45:03.296Z,0
2017-05-24T20:50:02.580Z,0
2017-05-24T20:55:03.073Z,0
2017-05-24T21:00:02.732Z,0
2017-05-24T21:05:02.749Z,0
2017-05-24T21:10:03.206Z,0
2017-05-24T21:15:02.847Z,0
2017-05-24T21:20:03.031Z,0
2017-05-24T21:25:02.789Z,0
2017-05-24T21:30:02.484Z,0
2017-05-24T21:35:03.230Z,0
2017-05-24T21:40:02.976Z,0
2017-05-24T21:45:02.709Z,0
2017-05-24T21:50:02.491Z,0
2017-05-24T21:55:03.121Z,0
2017-05-24T22:00:02.810Z,0
2017-05-24T22:05:02.650Z,0
2017-05-24T22:10:03.318Z,0
2017-05-24T22:15:03.068Z,0
2017-05-24T22:20:02.535Z,0
2017-05-24T22:25:03.116Z,0
2017-05-24T22:30:02.562Z,0
2017-05-24T22:35:03.346Z,0
2017-05-24T22:40:03.105Z,0
2017-05-24T22:45:02.855Z,0
2017-05-24T22:50:02.606Z,0
2017-05-24T22:55:03.219Z,0
2017-05-24T23:00:02.811Z,0
2017-05-24T23:05:02.477Z,0
2017-05-24T23:10:03.316Z,0
2017-05-24T23:15:02.986Z,0
2017-05-24T23:20:02.586Z,0
2017-05-24T23:25:03.302Z,0
2017-05-24T23:30:02.947Z,0
2017-05-24T23:35:02.644Z,0
2017-05-24T23:40:03.354Z,0
2017-05-24T23:45:02.961Z,0
2017-05-24T23:50:02.597Z,0
2017-05-24T23:55:03.224Z,0
